sensor_id;sensor_type;location;lat;lon;timestamp;pressure;altitude;pressure_sealevel;temperature;humidity
60099;BME280;62818;49.394;8.686;2023-03-20T00:00:56;100625.25;;;10.52;100.00
60099;BME280;62818;49.394;8.686;2023-03-20T00:01:57;100627.94;;;10.43;100.00
60099;BME280;62818;49.394;8.686;2023-03-20T00:02:58;100633.56;;;10.32;100.00
60099;BME280;62818;49.394;8.686;2023-03-20T00:03:59;100629.09;;;10.25;100.00
60099;BME280;62818;49.394;8.686;2023-03-20T00:04:59;100638.16;;;10.47;100.00
60099;BME280;62818;49.394;8.686;2023-03-20T00:06:00;100634.88;;;10.44;100.00
60099;BME280;62818;49.394;8.686;2023-03-20T00:07:00;100633.03;;;10.05;100.00
60099;BME280;62818;49.394;8.686;2023-03-20T00:08:01;100634.41;;;10.25;100.00
60099;BME280;62818;49.394;8.686;2023-03-20T00:09:01;100629.91;;;10.50;100.00
60099;BME280;62818;49.394;8.686;2023-03-20T00:10:03;100636.53;;;10.46;100.00
60099;BME280;62818;49.394;8.686;2023-03-20T00:11:04;100637.53;;;10.36;100.00
60099;BME280;62818;49.394;8.686;2023-03-20T00:12:05;100635.22;;;10.33;100.00
60099;BME280;62818;49.394;8.686;2023-03-20T00:13:07;100639.84;;;10.31;100.00
60099;BME280;62818;49.394;8.686;2023-03-20T00:14:15;100638.53;;;10.27;100.00
60099;BME280;62818;49.394;8.686;2023-03-20T00:15:34;100642.69;;;10.14;100.00
60099;BME280;62818;49.394;8.686;2023-03-20T00:16:39;100637.84;;;10.09;100.00
60099;BME280;62818;49.394;8.686;2023-03-20T00:17:42;100642.84;;;10.28;100.00
60099;BME280;62818;49.394;8.686;2023-03-20T00:18:42;100651.75;;;10.35;100.00
60099;BME280;62818;49.394;8.686;2023-03-20T00:19:44;100652.78;;;10.26;100.00
60099;BME280;62818;49.394;8.686;2023-03-20T00:20:46;100647.13;;;10.05;100.00
60099;BME280;62818;49.394;8.686;2023-03-20T00:21:46;100641.84;;;10.13;100.00
60099;BME280;62818;49.394;8.686;2023-03-20T00:22:48;100651.44;;;10.06;100.00
60099;BME280;62818;49.394;8.686;2023-03-20T00:23:49;100647.66;;;10.17;100.00
60099;BME280;62818;49.394;8.686;2023-03-20T00:24:50;100640.78;;;11.48;100.00
60099;BME280;62818;49.394;8.686;2023-03-20T00:25:50;100645.47;;;10.53;100.00
60099;BME280;62818;49.394;8.686;2023-03-20T00:26:51;100644.84;;;10.18;100.00
60099;BME280;62818;49.394;8.686;2023-03-20T00:27:53;100643.81;;;10.43;100.00
60099;BME280;62818;49.394;8.686;2023-03-20T00:28:53;100656.34;;;10.74;100.00
60099;BME280;62818;49.394;8.686;2023-03-20T00:29:55;100647.59;;;10.49;100.00
60099;BME280;62818;49.394;8.686;2023-03-20T00:30:56;100638.84;;;10.57;100.00
60099;BME280;62818;49.394;8.686;2023-03-20T00:31:57;100650.09;;;10.42;100.00
60099;BME280;62818;49.394;8.686;2023-03-20T00:32:58;100643.81;;;10.43;100.00
60099;BME280;62818;49.394;8.686;2023-03-20T00:34:04;100646.75;;;10.65;100.00
60099;BME280;62818;49.394;8.686;2023-03-20T00:35:23;100649.34;;;10.89;100.00
60099;BME280;62818;49.394;8.686;2023-03-20T00:36:27;100646.41;;;10.76;100.00
60099;BME280;62818;49.394;8.686;2023-03-20T00:37:28;100647.78;;;10.64;100.00
60099;BME280;62818;49.394;8.686;2023-03-20T00:38:28;100647.59;;;10.65;100.00
60099;BME280;62818;49.394;8.686;2023-03-20T00:39:29;100646.81;;;10.49;100.00
60099;BME280;62818;49.394;8.686;2023-03-20T00:40:30;100645.78;;;10.50;100.00
60099;BME280;62818;49.394;8.686;2023-03-20T00:42:37;100641.00;;;10.45;100.00
60099;BME280;62818;49.394;8.686;2023-03-20T00:43:38;100642.31;;;11.04;100.00
60099;BME280;62818;49.394;8.686;2023-03-20T00:44:53;100644.56;;;10.76;100.00
60099;BME280;62818;49.394;8.686;2023-03-20T00:45:57;100642.44;;;10.72;100.00
60099;BME280;62818;49.394;8.686;2023-03-20T00:47:02;100639.91;;;10.86;100.00
60099;BME280;62818;49.394;8.686;2023-03-20T00:48:13;100634.22;;;10.97;100.00
60099;BME280;62818;49.394;8.686;2023-03-20T00:49:20;100644.44;;;10.70;100.00
60099;BME280;62818;49.394;8.686;2023-03-20T00:50:26;100642.44;;;10.72;100.00
60099;BME280;62818;49.394;8.686;2023-03-20T00:51:30;100643.13;;;10.66;100.00
60099;BME280;62818;49.394;8.686;2023-03-20T00:52:31;100642.63;;;10.62;100.00
60099;BME280;62818;49.394;8.686;2023-03-20T00:53:32;100645.59;;;11.14;100.00
60099;BME280;62818;49.394;8.686;2023-03-20T00:54:32;100644.75;;;10.67;100.00
60099;BME280;62818;49.394;8.686;2023-03-20T00:55:33;100637.81;;;10.58;100.00
60099;BME280;62818;49.394;8.686;2023-03-20T00:56:41;100643.16;;;10.50;100.00
60099;BME280;62818;49.394;8.686;2023-03-20T00:57:48;100642.78;;;10.61;100.00
60099;BME280;62818;49.394;8.686;2023-03-20T00:58:51;100634.97;;;10.75;100.00
60099;BME280;62818;49.394;8.686;2023-03-20T01:01:06;100639.84;;;10.48;100.00
60099;BME280;62818;49.394;8.686;2023-03-20T01:02:07;100643.81;;;10.52;100.00
60099;BME280;62818;49.394;8.686;2023-03-20T01:03:22;100637.13;;;10.72;100.00
60099;BME280;62818;49.394;8.686;2023-03-20T01:04:42;100635.81;;;10.60;100.00
60099;BME280;62818;49.394;8.686;2023-03-20T01:05:44;100633.84;;;10.54;100.00
60099;BME280;62818;49.394;8.686;2023-03-20T01:06:45;100649.44;;;10.40;100.00
60099;BME280;62818;49.394;8.686;2023-03-20T01:07:46;100638.16;;;10.63;100.00
60099;BME280;62818;49.394;8.686;2023-03-20T01:08:47;100633.56;;;10.95;100.00
60099;BME280;62818;49.394;8.686;2023-03-20T01:09:48;100644.31;;;11.10;100.00
60099;BME280;62818;49.394;8.686;2023-03-20T01:10:55;100635.44;;;10.87;100.00
60099;BME280;62818;49.394;8.686;2023-03-20T01:12:01;100635.31;;;10.64;100.00
60099;BME280;62818;49.394;8.686;2023-03-20T01:13:03;100637.16;;;10.56;100.00
60099;BME280;62818;49.394;8.686;2023-03-20T01:14:11;100627.16;;;10.82;100.00
60099;BME280;62818;49.394;8.686;2023-03-20T01:15:22;100633.78;;;10.86;100.00
60099;BME280;62818;49.394;8.686;2023-03-20T01:16:26;100640.63;;;11.11;100.00
60099;BME280;62818;49.394;8.686;2023-03-20T01:17:27;100637.97;;;11.19;100.00
60099;BME280;62818;49.394;8.686;2023-03-20T01:18:29;100632.16;;;11.46;100.00
60099;BME280;62818;49.394;8.686;2023-03-20T01:19:29;100638.34;;;11.08;100.00
60099;BME280;62818;49.394;8.686;2023-03-20T01:20:30;100632.75;;;11.34;100.00
60099;BME280;62818;49.394;8.686;2023-03-20T01:21:31;100636.31;;;11.18;100.00
60099;BME280;62818;49.394;8.686;2023-03-20T01:22:31;100643.50;;;11.01;100.00
60099;BME280;62818;49.394;8.686;2023-03-20T01:23:32;100646.53;;;10.82;100.00
60099;BME280;62818;49.394;8.686;2023-03-20T01:24:33;100646.53;;;10.90;100.00
60099;BME280;62818;49.394;8.686;2023-03-20T01:25:33;100642.31;;;11.04;100.00
60099;BME280;62818;49.394;8.686;2023-03-20T01:26:40;100644.44;;;10.70;100.00
60099;BME280;62818;49.394;8.686;2023-03-20T01:27:44;100648.75;;;10.63;100.00
60099;BME280;62818;49.394;8.686;2023-03-20T01:28:49;100645.47;;;10.44;100.00
60099;BME280;62818;49.394;8.686;2023-03-20T01:29:50;100640.06;;;10.85;100.00
60099;BME280;62818;49.394;8.686;2023-03-20T01:30:50;100644.16;;;10.49;100.00
60099;BME280;62818;49.394;8.686;2023-03-20T01:31:52;100650.75;;;10.44;100.00
60099;BME280;62818;49.394;8.686;2023-03-20T01:32:53;100639.09;;;10.86;100.00
60099;BME280;62818;49.394;8.686;2023-03-20T01:33:54;100650.44;;;10.48;100.00
60099;BME280;62818;49.394;8.686;2023-03-20T01:34:54;100642.44;;;10.72;100.00
60099;BME280;62818;49.394;8.686;2023-03-20T01:35:55;100651.06;;;10.58;100.00
60099;BME280;62818;49.394;8.686;2023-03-20T01:36:57;100643.78;;;10.60;100.00
60099;BME280;62818;49.394;8.686;2023-03-20T01:37:58;100647.25;;;10.60;100.00
60099;BME280;62818;49.394;8.686;2023-03-20T01:38:58;100650.31;;;10.33;100.00
60099;BME280;62818;49.394;8.686;2023-03-20T01:39:59;100654.28;;;10.37;100.00
60099;BME280;62818;49.394;8.686;2023-03-20T01:41:16;100652.72;;;10.75;100.00
60099;BME280;62818;49.394;8.686;2023-03-20T01:42:17;100658.41;;;10.31;100.00
60099;BME280;62818;49.394;8.686;2023-03-20T01:43:20;100654.06;;;10.47;100.00
60099;BME280;62818;49.394;8.686;2023-03-20T01:44:27;100648.78;;;10.47;100.00
60099;BME280;62818;49.394;8.686;2023-03-20T01:45:33;100647.13;;;10.62;100.00
60099;BME280;62818;49.394;8.686;2023-03-20T01:46:39;100658.19;;;10.65;100.00
60099;BME280;62818;49.394;8.686;2023-03-20T01:47:40;100657.88;;;10.52;100.00
60099;BME280;62818;49.394;8.686;2023-03-20T01:50:24;100662.19;;;10.45;100.00
60099;BME280;62818;49.394;8.686;2023-03-20T01:51:32;100662.03;;;10.22;100.00
60099;BME280;62818;49.394;8.686;2023-03-20T01:52:34;100652.28;;;10.23;100.00
60099;BME280;62818;49.394;8.686;2023-03-20T01:53:35;100662.50;;;10.66;100.00
60099;BME280;62818;49.394;8.686;2023-03-20T01:54:37;100660.03;;;10.57;100.00
60099;BME280;62818;49.394;8.686;2023-03-20T01:55:40;100656.34;;;10.74;100.00
60099;BME280;62818;49.394;8.686;2023-03-20T01:58:21;100657.06;;;10.52;100.00
60099;BME280;62818;49.394;8.686;2023-03-20T01:59:30;100667.03;;;10.41;100.00
60099;BME280;62818;49.394;8.686;2023-03-20T02:00:43;100664.50;;;10.40;100.00
60099;BME280;62818;49.394;8.686;2023-03-20T02:01:47;100665.03;;;10.27;100.00
60099;BME280;62818;49.394;8.686;2023-03-20T02:02:48;100667.66;;;10.35;100.00
60099;BME280;62818;49.394;8.686;2023-03-20T02:03:49;100666.03;;;10.51;100.00
60099;BME280;62818;49.394;8.686;2023-03-20T02:04:51;100668.09;;;10.87;100.00
60099;BME280;62818;49.394;8.686;2023-03-20T02:05:56;100678.56;;;10.65;100.00
60099;BME280;62818;49.394;8.686;2023-03-20T02:06:57;100672.63;;;10.38;100.00
60099;BME280;62818;49.394;8.686;2023-03-20T02:08:14;100667.34;;;10.38;100.00
60099;BME280;62818;49.394;8.686;2023-03-20T02:09:20;100669.34;;;10.20;100.00
60099;BME280;62818;49.394;8.686;2023-03-20T02:10:21;100665.69;;;10.21;100.00
60099;BME280;62818;49.394;8.686;2023-03-20T02:11:23;100670.97;;;10.46;100.00
60099;BME280;62818;49.394;8.686;2023-03-20T02:12:24;100668.84;;;10.33;100.00
60099;BME280;62818;49.394;8.686;2023-03-20T02:13:29;100666.69;;;10.28;100.00
60099;BME280;62818;49.394;8.686;2023-03-20T02:14:31;100675.63;;;10.35;100.00
60099;BME280;62818;49.394;8.686;2023-03-20T02:15:33;100665.84;;;10.12;100.00
60099;BME280;62818;49.394;8.686;2023-03-20T02:16:35;100665.03;;;10.27;100.00
60099;BME280;62818;49.394;8.686;2023-03-20T02:17:35;100667.66;;;10.35;100.00
60099;BME280;62818;49.394;8.686;2023-03-20T02:18:37;100658.72;;;10.53;100.00
60099;BME280;62818;49.394;8.686;2023-03-20T02:22:17;100661.03;;;10.07;100.00
60099;BME280;62818;49.394;8.686;2023-03-20T02:32:34;100654.09;;;10.38;100.00
60099;BME280;62818;49.394;8.686;2023-03-20T02:35:15;100671.63;;;10.48;100.00
60099;BME280;62818;49.394;8.686;2023-03-20T02:42:10;100667.31;;;10.63;100.00
60099;BME280;62818;49.394;8.686;2023-03-20T02:46:33;100668.69;;;10.26;100.00
60099;BME280;62818;49.394;8.686;2023-03-20T02:49:22;100668.63;;;10.75;100.00
60099;BME280;62818;49.394;8.686;2023-03-20T02:51:34;100675.63;;;10.35;100.00
60099;BME280;62818;49.394;8.686;2023-03-20T02:53:52;100670.00;;;10.22;100.00
60099;BME280;62818;49.394;8.686;2023-03-20T02:59:01;100673.31;;;10.32;100.00
60099;BME280;62818;49.394;8.686;2023-03-20T03:00:11;100671.66;;;10.31;100.00
60099;BME280;62818;49.394;8.686;2023-03-20T03:01:30;100666.66;;;10.44;100.00
60099;BME280;62818;49.394;8.686;2023-03-20T03:02:37;100658.53;;;10.54;100.00
60099;BME280;62818;49.394;8.686;2023-03-20T03:03:46;100668.69;;;10.26;100.00
60099;BME280;62818;49.394;8.686;2023-03-20T03:04:57;100674.00;;;10.26;100.00
60099;BME280;62818;49.394;8.686;2023-03-20T03:07:32;100668.69;;;10.26;100.00
60099;BME280;62818;49.394;8.686;2023-03-20T03:08:39;100673.16;;;10.26;100.00
60099;BME280;62818;49.394;8.686;2023-03-20T03:09:59;100665.16;;;10.10;100.00
60099;BME280;62818;49.394;8.686;2023-03-20T03:11:06;100666.69;;;10.28;100.00
60099;BME280;62818;49.394;8.686;2023-03-20T03:12:20;100666.69;;;10.12;100.00
60099;BME280;62818;49.394;8.686;2023-03-20T03:13:29;100667.03;;;10.25;100.00
60099;BME280;62818;49.394;8.686;2023-03-20T03:14:42;100670.13;;;10.05;100.00
60099;BME280;62818;49.394;8.686;2023-03-20T03:15:50;100675.13;;;10.32;100.00
60099;BME280;62818;49.394;8.686;2023-03-20T03:16:54;100679.41;;;10.49;100.00
60099;BME280;62818;49.394;8.686;2023-03-20T03:17:58;100676.28;;;10.21;100.00
60099;BME280;62818;49.394;8.686;2023-03-20T03:19:08;100676.63;;;10.18;100.00
60099;BME280;62818;49.394;8.686;2023-03-20T03:20:22;100672.81;;;10.13;100.00
60099;BME280;62818;49.394;8.686;2023-03-20T03:21:28;100673.00;;;10.19;100.00
60099;BME280;62818;49.394;8.686;2023-03-20T03:22:31;100682.25;;;10.48;100.00
60099;BME280;62818;49.394;8.686;2023-03-20T03:23:42;100674.97;;;10.17;100.00
60099;BME280;62818;49.394;8.686;2023-03-20T03:24:48;100680.25;;;10.66;100.00
60099;BME280;62818;49.394;8.686;2023-03-20T03:25:52;100675.78;;;10.66;100.00
60099;BME280;62818;49.394;8.686;2023-03-20T03:26:58;100685.88;;;10.47;100.00
60099;BME280;62818;49.394;8.686;2023-03-20T03:28:07;100675.94;;;10.08;100.00
60099;BME280;62818;49.394;8.686;2023-03-20T03:29:14;100676.09;;;9.99;100.00
60099;BME280;62818;49.394;8.686;2023-03-20T03:30:20;100678.28;;;10.19;100.00
60099;BME280;62818;49.394;8.686;2023-03-20T03:31:28;100679.63;;;10.39;100.00
60099;BME280;62818;49.394;8.686;2023-03-20T03:32:33;100680.25;;;10.33;100.00
60099;BME280;62818;49.394;8.686;2023-03-20T03:33:37;100672.16;;;10.19;100.00
60099;BME280;62818;49.394;8.686;2023-03-20T03:34:40;100677.56;;;10.09;100.00
60099;BME280;62818;49.394;8.686;2023-03-20T03:35:40;100668.66;;;10.18;100.00
60099;BME280;62818;49.394;8.686;2023-03-20T03:36:58;100679.63;;;10.39;100.00
60099;BME280;62818;49.394;8.686;2023-03-20T03:38:26;100673.94;;;10.10;100.00
60099;BME280;62818;49.394;8.686;2023-03-20T03:40:06;100673.94;;;10.10;100.00
60099;BME280;62818;49.394;8.686;2023-03-20T03:41:19;100671.16;;;10.28;100.00
60099;BME280;62818;49.394;8.686;2023-03-20T03:44:12;100673.31;;;10.40;100.00
60099;BME280;62818;49.394;8.686;2023-03-20T03:46:40;100669.50;;;10.35;100.00
60099;BME280;62818;49.394;8.686;2023-03-20T03:49:17;100663.34;;;10.10;100.00
60099;BME280;62818;49.394;8.686;2023-03-20T03:50:53;100662.56;;;10.26;100.00
60099;BME280;62818;49.394;8.686;2023-03-20T03:52:00;100673.31;;;10.16;100.00
60099;BME280;62818;49.394;8.686;2023-03-20T03:53:09;100668.19;;;10.39;100.00
60099;BME280;62818;49.394;8.686;2023-03-20T03:54:20;100670.81;;;10.23;100.00
60099;BME280;62818;49.394;8.686;2023-03-20T03:55:27;100668.00;;;10.16;100.00
60099;BME280;62818;49.394;8.686;2023-03-20T03:56:33;100668.53;;;10.20;100.00
60099;BME280;62818;49.394;8.686;2023-03-20T03:57:45;100665.53;;;10.15;100.00
60099;BME280;62818;49.394;8.686;2023-03-20T03:58:56;100664.34;;;10.09;100.00
60099;BME280;62818;49.394;8.686;2023-03-20T04:00:04;100665.31;;;10.00;100.00
60099;BME280;62818;49.394;8.686;2023-03-20T04:01:08;100655.91;;;10.06;100.00
60099;BME280;62818;49.394;8.686;2023-03-20T04:02:12;100667.34;;;10.22;100.00
60099;BME280;62818;49.394;8.686;2023-03-20T04:03:13;100671.94;;;9.88;100.00
60099;BME280;62818;49.394;8.686;2023-03-20T04:04:15;100665.03;;;10.27;100.00
60099;BME280;62818;49.394;8.686;2023-03-20T04:05:18;100668.66;;;10.51;100.00
60099;BME280;62818;49.394;8.686;2023-03-20T04:06:20;100670.00;;;10.30;100.00
60099;BME280;62818;49.394;8.686;2023-03-20T04:07:25;100664.34;;;10.33;100.00
60099;BME280;62818;49.394;8.686;2023-03-20T04:08:27;100672.28;;;10.09;100.00
60099;BME280;62818;49.394;8.686;2023-03-20T04:09:28;100666.66;;;10.04;100.00
60099;BME280;62818;49.394;8.686;2023-03-20T04:10:29;100675.63;;;10.35;100.00
60099;BME280;62818;49.394;8.686;2023-03-20T04:11:30;100674.63;;;10.53;100.00
60099;BME280;62818;49.394;8.686;2023-03-20T04:12:32;100677.28;;;10.28;100.00
60099;BME280;62818;49.394;8.686;2023-03-20T04:13:45;100680.03;;;10.75;100.00
60099;BME280;62818;49.394;8.686;2023-03-20T04:14:47;100678.56;;;10.65;100.00
60099;BME280;62818;49.394;8.686;2023-03-20T04:15:47;100683.03;;;10.64;100.00
60099;BME280;62818;49.394;8.686;2023-03-20T04:16:48;100686.38;;;10.66;100.00
60099;BME280;62818;49.394;8.686;2023-03-20T04:17:48;100688.53;;;10.55;100.00
60099;BME280;62818;49.394;8.686;2023-03-20T04:18:49;100691.84;;;10.40;100.00
60099;BME280;62818;49.394;8.686;2023-03-20T04:19:50;100683.59;;;10.19;100.00
60099;BME280;62818;49.394;8.686;2023-03-20T04:20:51;100684.53;;;10.02;100.00
60099;BME280;62818;49.394;8.686;2023-03-20T04:21:52;100684.22;;;10.13;100.00
60099;BME280;62818;49.394;8.686;2023-03-20T04:22:54;100696.31;;;10.40;100.00
60099;BME280;62818;49.394;8.686;2023-03-20T04:23:55;100696.31;;;10.32;100.00
60099;BME280;62818;49.394;8.686;2023-03-20T04:24:55;100697.81;;;10.34;100.00
60099;BME280;62818;49.394;8.686;2023-03-20T04:25:56;100698.31;;;10.22;100.00
60099;BME280;62818;49.394;8.686;2023-03-20T04:26:56;100696.31;;;10.16;100.00
60099;BME280;62818;49.394;8.686;2023-03-20T04:27:57;100705.69;;;9.94;100.00
60099;BME280;62818;49.394;8.686;2023-03-20T04:28:57;100702.34;;;9.76;100.00
60099;BME280;62818;49.394;8.686;2023-03-20T04:29:58;100698.97;;;10.16;100.00
60099;BME280;62818;49.394;8.686;2023-03-20T04:30:59;100703.09;;;10.18;100.00
60099;BME280;62818;49.394;8.686;2023-03-20T04:32:00;100709.34;;;10.01;100.00
60099;BME280;62818;49.394;8.686;2023-03-20T04:33:01;100709.22;;;10.51;100.00
60099;BME280;62818;49.394;8.686;2023-03-20T04:34:01;100705.09;;;10.16;100.00
60099;BME280;62818;49.394;8.686;2023-03-20T04:35:02;100703.09;;;10.42;100.00
60099;BME280;62818;49.394;8.686;2023-03-20T04:36:03;100714.03;;;10.48;100.00
60099;BME280;62818;49.394;8.686;2023-03-20T04:37:03;100704.94;;;10.34;100.00
60099;BME280;62818;49.394;8.686;2023-03-20T04:38:07;100721.66;;;10.75;100.00
60099;BME280;62818;49.394;8.686;2023-03-20T04:39:08;100716.19;;;10.36;100.00
60099;BME280;62818;49.394;8.686;2023-03-20T04:40:09;100713.38;;;10.21;100.00
60099;BME280;62818;49.394;8.686;2023-03-20T04:41:10;100713.72;;;10.51;100.00
60099;BME280;62818;49.394;8.686;2023-03-20T04:42:10;100718.84;;;10.28;100.00
60099;BME280;62818;49.394;8.686;2023-03-20T04:43:12;100711.41;;;10.48;100.00
60099;BME280;62818;49.394;8.686;2023-03-20T04:44:13;100717.84;;;10.69;100.00
60099;BME280;62818;49.394;8.686;2023-03-20T04:45:14;100710.03;;;10.84;100.00
60099;BME280;62818;49.394;8.686;2023-03-20T04:46:14;100708.38;;;10.83;100.00
60099;BME280;62818;49.394;8.686;2023-03-20T04:47:15;100712.06;;;10.41;100.00
60099;BME280;62818;49.394;8.686;2023-03-20T04:48:16;100707.88;;;9.99;100.00
60099;BME280;62818;49.394;8.686;2023-03-20T04:49:16;100706.78;;;10.17;100.00
60099;BME280;62818;49.394;8.686;2023-03-20T04:50:17;100698.16;;;10.15;100.00
60099;BME280;62818;49.394;8.686;2023-03-20T04:51:17;100699.78;;;10.24;100.00
60099;BME280;62818;49.394;8.686;2023-03-20T04:52:18;100698.81;;;10.33;100.00
60099;BME280;62818;49.394;8.686;2023-03-20T04:53:18;100695.00;;;10.28;100.00
60099;BME280;62818;49.394;8.686;2023-03-20T04:54:19;100687.88;;;10.20;100.00
60099;BME280;62818;49.394;8.686;2023-03-20T04:55:19;100692.84;;;10.23;100.00
60099;BME280;62818;49.394;8.686;2023-03-20T04:56:21;100691.84;;;10.24;100.00
60099;BME280;62818;49.394;8.686;2023-03-20T04:57:21;100696.94;;;10.02;100.00
60099;BME280;62818;49.394;8.686;2023-03-20T04:58:22;100694.78;;;9.97;100.00
60099;BME280;62818;49.394;8.686;2023-03-20T04:59:23;100693.78;;;9.90;100.00
60099;BME280;62818;49.394;8.686;2023-03-20T05:00:23;100692.66;;;10.09;100.00
60099;BME280;62818;49.394;8.686;2023-03-20T05:01:24;100699.25;;;9.97;100.00
60099;BME280;62818;49.394;8.686;2023-03-20T05:02:24;100698.97;;;10.32;100.00
60099;BME280;62818;49.394;8.686;2023-03-20T05:03:26;100695.16;;;10.59;100.00
60099;BME280;62818;49.394;8.686;2023-03-20T05:04:26;100709.34;;;10.09;100.00
60099;BME280;62818;49.394;8.686;2023-03-20T05:05:27;100701.72;;;9.98;100.00
60099;BME280;62818;49.394;8.686;2023-03-20T05:06:29;100699.09;;;9.90;100.00
60099;BME280;62818;49.394;8.686;2023-03-20T05:07:33;100697.78;;;10.02;100.00
60099;BME280;62818;49.394;8.686;2023-03-20T05:08:33;100703.78;;;10.20;100.00
60099;BME280;62818;49.394;8.686;2023-03-20T05:09:34;100701.91;;;9.97;100.00
60099;BME280;62818;49.394;8.686;2023-03-20T05:10:35;100702.63;;;10.31;100.00
60099;BME280;62818;49.394;8.686;2023-03-20T05:11:35;100708.09;;;10.37;100.00
60099;BME280;62818;49.394;8.686;2023-03-20T05:12:35;100708.75;;;10.31;100.00
60099;BME280;62818;49.394;8.686;2023-03-20T05:13:36;100712.31;;;9.98;100.00
60099;BME280;62818;49.394;8.686;2023-03-20T05:14:36;100718.84;;;10.12;100.00
60099;BME280;62818;49.394;8.686;2023-03-20T05:15:37;100718.84;;;10.12;100.00
60099;BME280;62818;49.394;8.686;2023-03-20T05:16:38;100717.69;;;10.14;100.00
60099;BME280;62818;49.394;8.686;2023-03-20T05:17:39;100722.28;;;10.04;100.00
60099;BME280;62818;49.394;8.686;2023-03-20T05:18:39;100719.03;;;10.34;100.00
60099;BME280;62818;49.394;8.686;2023-03-20T05:19:40;100723.59;;;10.08;100.00
60099;BME280;62818;49.394;8.686;2023-03-20T05:20:42;100724.78;;;10.14;100.00
60099;BME280;62818;49.394;8.686;2023-03-20T05:21:42;100718.09;;;9.86;100.00
60099;BME280;62818;49.394;8.686;2023-03-20T05:22:43;100718.63;;;10.05;100.00
60099;BME280;62818;49.394;8.686;2023-03-20T05:23:43;100721.34;;;10.62;100.00
60099;BME280;62818;49.394;8.686;2023-03-20T05:24:44;100723.31;;;10.52;100.00
60099;BME280;62818;49.394;8.686;2023-03-20T05:25:44;100725.00;;;10.28;100.00
60099;BME280;62818;49.394;8.686;2023-03-20T05:26:45;100715.47;;;9.94;100.00
60099;BME280;62818;49.394;8.686;2023-03-20T05:27:46;100709.63;;;9.74;100.00
60099;BME280;62818;49.394;8.686;2023-03-20T05:28:46;100712.31;;;9.82;100.00
60099;BME280;62818;49.394;8.686;2023-03-20T05:29:47;100714.66;;;9.93;100.00
60099;BME280;62818;49.394;8.686;2023-03-20T05:30:47;100712.63;;;9.79;100.00
60099;BME280;62818;49.394;8.686;2023-03-20T05:31:48;100716.84;;;10.14;100.00
60099;BME280;62818;49.394;8.686;2023-03-20T05:32:49;100717.03;;;10.28;100.00
60099;BME280;62818;49.394;8.686;2023-03-20T05:33:51;100713.22;;;10.39;100.00
60099;BME280;62818;49.394;8.686;2023-03-20T05:34:51;100721.34;;;10.46;100.00
60099;BME280;62818;49.394;8.686;2023-03-20T05:35:52;100727.91;;;10.01;100.00
60099;BME280;62818;49.394;8.686;2023-03-20T05:36:53;100726.22;;;10.00;100.00
60099;BME280;62818;49.394;8.686;2023-03-20T05:37:53;100727.22;;;9.91;100.00
60099;BME280;62818;49.394;8.686;2023-03-20T05:38:54;100729.88;;;9.99;100.00
60099;BME280;62818;49.394;8.686;2023-03-20T05:39:54;100726.59;;;10.13;100.00
60099;BME280;62818;49.394;8.686;2023-03-20T05:40:56;100724.16;;;10.28;100.00
60099;BME280;62818;49.394;8.686;2023-03-20T05:41:58;100730.59;;;10.58;100.00
60099;BME280;62818;49.394;8.686;2023-03-20T05:42:58;100729.56;;;10.02;100.00
60099;BME280;62818;49.394;8.686;2023-03-20T05:43:59;100736.19;;;10.06;100.00
60099;BME280;62818;49.394;8.686;2023-03-20T05:44:59;100734.16;;;10.00;100.00
60099;BME280;62818;49.394;8.686;2023-03-20T05:46:00;100732.53;;;9.91;100.00
60099;BME280;62818;49.394;8.686;2023-03-20T05:47:00;100730.78;;;10.24;100.00
60099;BME280;62818;49.394;8.686;2023-03-20T05:48:01;100733.50;;;9.98;100.00
60099;BME280;62818;49.394;8.686;2023-03-20T05:49:01;100728.28;;;10.14;100.00
60099;BME280;62818;49.394;8.686;2023-03-20T05:50:02;100728.28;;;10.30;100.00
60099;BME280;62818;49.394;8.686;2023-03-20T05:51:03;100721.81;;;10.49;100.00
60099;BME280;62818;49.394;8.686;2023-03-20T05:52:05;100720.81;;;10.58;100.00
60099;BME280;62818;49.394;8.686;2023-03-20T05:53:05;100722.16;;;10.38;100.00
60099;BME280;62818;49.394;8.686;2023-03-20T05:54:07;100727.63;;;10.53;100.00
60099;BME280;62818;49.394;8.686;2023-03-20T05:55:08;100718.19;;;10.34;100.00
60099;BME280;62818;49.394;8.686;2023-03-20T05:56:08;100723.97;;;10.21;100.00
60099;BME280;62818;49.394;8.686;2023-03-20T05:57:09;100719.69;;;10.28;100.00
60099;BME280;62818;49.394;8.686;2023-03-20T05:58:10;100716.69;;;10.64;100.00
60099;BME280;62818;49.394;8.686;2023-03-20T05:59:11;100720.31;;;10.47;100.00
60099;BME280;62818;49.394;8.686;2023-03-20T06:00:11;100716.69;;;10.23;100.00
60099;BME280;62818;49.394;8.686;2023-03-20T06:01:12;100711.88;;;10.27;100.00
60099;BME280;62818;49.394;8.686;2023-03-20T06:02:15;100715.03;;;10.22;100.00
60099;BME280;62818;49.394;8.686;2023-03-20T06:03:16;100710.72;;;10.29;100.00
60099;BME280;62818;49.394;8.686;2023-03-20T06:04:16;100717.00;;;10.44;100.00
60099;BME280;62818;49.394;8.686;2023-03-20T06:05:17;100718.84;;;10.12;100.00
60099;BME280;62818;49.394;8.686;2023-03-20T06:06:17;100718.97;;;10.10;100.00
60099;BME280;62818;49.394;8.686;2023-03-20T06:07:18;100711.34;;;10.07;100.00
60099;BME280;62818;49.394;8.686;2023-03-20T06:08:19;100700.97;;;10.22;100.00
60099;BME280;62818;49.394;8.686;2023-03-20T06:09:20;100701.06;;;9.88;100.00
60099;BME280;62818;49.394;8.686;2023-03-20T06:10:20;100700.44;;;10.10;100.00